首页
METAR-TAF:

METAR-TAF

机场 :

伊爾庫茨克國際機場

伊爾庫茨克, 俄罗斯

纬度: 52-16N, 经度: 104-19E, 海拔: 513米

当前天气观测

该预报发布于35分钟前的20:30 UTC
风速4节,风向东转东北
温度 -26°C
湿度 83%
气压 1028 hPa
能見度: 0650
多云层高于600英尺
冻雾

METAR: UIII 172030Z 06002MPS 9000 0650SE FZFG BKN006 M26/M28 Q1028 R12/820555 NOSIG RMK QBB200 QFE728/0971

时间: 05:05 (21:05 UTC)

预报

该预报发布于1小时和5分钟前的20:00 UTC
预报有效从17日的 21点(UTC)到 18日的 21点(UTC)
风速6节,风向东转东北
能见度10公里或以上
多云层高于200英尺
短暂存在
从 17日的 21点(UTC)到 18日的 03点(UTC)
能見度: 0300
层高于100英尺
冻雾, 烟
成为
从 18日的 03点(UTC)到 18日的 04点(UTC)
风速12节,风向南转南东

TAF: UIII 172000Z 1721/1821 06003MPS 9999 BKN002 TEMPO 1721/1803 0300 FZFG FU VV001 BECMG 1803/1804 16006MPS NSC

超过4000个机场的气象观测和天气预报(METAR&TAF报告)。

可查询的气象台以黄色和红色小点在地图上表示。

将鼠标移到小点上方,可查看气象台名称。

然后点击查看天气观测和预报。

如需切换地图:点击带黑十字的绿色按钮放大地图;点击带横线的绿色按钮缩小地图;或者点击绿色箭头查看邻近地区的地图。


METAR-TAF: